createdAt,value
2018-12-06T00:00:43.147Z,14.49
2018-12-06T00:03:11.497Z,14.65
2018-12-06T00:05:39.808Z,14.41
2018-12-06T00:08:15.741Z,14.04
2018-12-06T00:10:44.440Z,13.77
2018-12-06T00:13:13.744Z,13.66
2018-12-06T00:15:42.076Z,13.81
2018-12-06T00:18:10.481Z,14.10
2018-12-06T00:20:38.920Z,14.42
2018-12-06T00:23:07.509Z,14.42
2018-12-06T00:25:35.861Z,14.37
2018-12-06T00:28:04.254Z,14.25
2018-12-06T00:30:39.359Z,14.37
2018-12-06T00:33:07.711Z,14.33
2018-12-06T00:35:36.027Z,14.44
2018-12-06T00:38:04.698Z,14.38
2018-12-06T00:40:32.966Z,13.89
2018-12-06T00:43:01.410Z,13.86
2018-12-06T00:45:29.862Z,13.54
2018-12-06T00:47:58.167Z,13.91
2018-12-06T00:50:26.509Z,13.94
2018-12-06T00:52:54.840Z,14.03
2018-12-06T00:55:23.160Z,14.10
2018-12-06T00:57:51.486Z,13.80
2018-12-06T01:00:19.996Z,13.99
2018-12-06T01:02:48.275Z,14.11
2018-12-06T01:05:16.581Z,14.18
2018-12-06T01:07:44.970Z,13.99
2018-12-06T01:10:13.448Z,14.05
2018-12-06T01:12:41.821Z,13.37
2018-12-06T01:15:10.130Z,13.24
2018-12-06T01:17:38.504Z,13.13
2018-12-06T01:20:08.211Z,13.52
2018-12-06T01:22:36.761Z,13.36
2018-12-06T01:25:06.468Z,13.03
2018-12-06T01:27:34.809Z,13.03
2018-12-06T01:30:03.325Z,12.71
2018-12-06T01:32:31.828Z,12.78
2018-12-06T01:35:00.391Z,12.73
2018-12-06T01:37:28.758Z,12.63
2018-12-06T01:39:57.193Z,12.71
2018-12-06T01:42:25.819Z,12.54
2018-12-06T01:44:54.235Z,12.73
2018-12-06T01:47:22.783Z,12.77
2018-12-06T01:49:51.168Z,12.47
2018-12-06T01:52:19.543Z,12.68
2018-12-06T01:54:47.965Z,12.74
2018-12-06T01:57:16.484Z,13.42
2018-12-06T01:59:44.985Z,13.25
2018-12-06T02:02:13.366Z,13.17
2018-12-06T02:04:41.760Z,13.30
2018-12-06T02:07:10.028Z,13.15
2018-12-06T02:09:38.509Z,13.26
2018-12-06T02:12:06.861Z,12.83
2018-12-06T02:14:35.230Z,12.32
2018-12-06T02:17:03.757Z,11.58
2018-12-06T02:19:32.185Z,11.96
2018-12-06T02:22:00.565Z,13.20
2018-12-06T02:24:29.110Z,12.98
2018-12-06T02:26:57.469Z,12.55
2018-12-06T02:29:27.742Z,12.60
2018-12-06T02:31:56.360Z,13.40
2018-12-06T02:34:24.675Z,13.51
2018-12-06T02:36:53.120Z,13.61
2018-12-06T02:39:21.425Z,12.79
2018-12-06T02:41:49.995Z,12.73
2018-12-06T02:44:18.406Z,11.86
2018-12-06T02:46:46.666Z,12.01
2018-12-06T02:49:14.964Z,12.74
2018-12-06T02:51:43.294Z,13.14
2018-12-06T02:54:11.876Z,13.55
2018-12-06T02:56:40.184Z,13.99
2018-12-06T02:59:08.663Z,13.97
2018-12-06T03:01:37.143Z,13.92
2018-12-06T03:04:05.545Z,14.10
2018-12-06T03:06:33.807Z,14.07
2018-12-06T03:09:02.081Z,14.02
2018-12-06T03:11:30.503Z,13.48
2018-12-06T03:13:58.783Z,13.78
2018-12-06T03:16:27.114Z,13.15
2018-12-06T03:18:55.748Z,14.07
2018-12-06T03:21:24.062Z,13.57
2018-12-06T03:23:52.424Z,13.63
2018-12-06T03:26:20.862Z,14.13
2018-12-06T03:28:49.349Z,14.42
2018-12-06T03:31:17.768Z,14.62
2018-12-06T03:33:46.104Z,14.60
2018-12-06T03:36:14.502Z,14.71
2018-12-06T03:38:42.962Z,14.57
2018-12-06T03:41:11.480Z,14.49
2018-12-06T03:43:39.794Z,14.61
2018-12-06T03:46:08.394Z,14.21
2018-12-06T03:48:36.701Z,14.32
2018-12-06T03:51:05.050Z,14.64
2018-12-06T03:53:33.314Z,14.14
2018-12-06T03:56:01.668Z,14.28
2018-12-06T03:58:30.070Z,14.41
2018-12-06T04:00:58.454Z,14.17
2018-12-06T04:03:26.807Z,14.44
2018-12-06T04:05:55.163Z,14.22
2018-12-06T04:08:23.477Z,14.64
2018-12-06T04:10:51.827Z,14.55
2018-12-06T04:13:20.232Z,14.19
2018-12-06T04:15:48.665Z,14.50
2018-12-06T04:18:16.988Z,13.92
2018-12-06T04:20:45.281Z,14.13
2018-12-06T04:23:13.593Z,14.39
2018-12-06T04:25:41.937Z,14.21
2018-12-06T04:28:10.329Z,14.16
2018-12-06T04:30:38.762Z,14.37
2018-12-06T04:33:07.286Z,14.43
2018-12-06T04:35:35.613Z,14.05
2018-12-06T04:38:03.993Z,14.30
2018-12-06T04:40:32.455Z,14.34
2018-12-06T04:43:00.779Z,14.21
2018-12-06T04:45:29.071Z,14.28
2018-12-06T04:47:57.402Z,14.21
2018-12-06T04:50:25.967Z,14.38
2018-12-06T04:52:54.316Z,14.30
2018-12-06T04:55:22.821Z,14.19
2018-12-06T04:57:51.144Z,14.07
2018-12-06T05:00:19.489Z,14.35
2018-12-06T05:02:48.021Z,14.25
2018-12-06T05:05:16.466Z,14.35
2018-12-06T05:07:44.832Z,14.15
2018-12-06T05:10:13.264Z,14.06
2018-12-06T05:12:41.674Z,13.93
2018-12-06T05:15:10.193Z,13.88
2018-12-06T05:17:39.087Z,13.99
2018-12-06T05:20:07.455Z,14.16
2018-12-06T05:22:35.948Z,14.27
2018-12-06T05:25:05.571Z,14.28
2018-12-06T05:27:34.076Z,14.25
2018-12-06T05:30:02.346Z,14.53
2018-12-06T05:32:31.075Z,14.61
2018-12-06T05:34:59.440Z,14.68
2018-12-06T05:37:27.730Z,14.71
2018-12-06T05:39:56.242Z,14.65
2018-12-06T05:42:25.331Z,14.82
2018-12-06T05:44:53.681Z,14.79
2018-12-06T05:47:22.012Z,14.91
2018-12-06T05:49:50.529Z,14.91
2018-12-06T05:52:19.052Z,14.75
2018-12-06T05:54:49.577Z,14.34
2018-12-06T05:57:18.058Z,14.53
2018-12-06T05:59:46.355Z,14.78
2018-12-06T06:02:14.679Z,14.74
2018-12-06T06:04:43.173Z,14.60
2018-12-06T06:07:11.473Z,14.86
2018-12-06T06:09:40.182Z,14.86
2018-12-06T06:12:08.664Z,14.64
2018-12-06T06:14:37.196Z,14.92
2018-12-06T06:17:05.568Z,15.08
2018-12-06T06:19:33.929Z,14.81
2018-12-06T06:22:02.256Z,15.00
2018-12-06T06:24:30.610Z,14.87
2018-12-06T06:26:59.322Z,15.07
2018-12-06T06:29:27.714Z,15.04
2018-12-06T06:31:56.140Z,14.96
2018-12-06T06:34:24.474Z,14.75
2018-12-06T06:36:52.831Z,14.97
2018-12-06T06:39:21.186Z,14.84
2018-12-06T06:41:49.462Z,15.21
2018-12-06T06:44:17.822Z,15.15
2018-12-06T06:46:46.338Z,14.94
2018-12-06T06:49:14.688Z,15.17
2018-12-06T06:51:42.960Z,14.92
2018-12-06T06:54:11.382Z,15.02
2018-12-06T06:56:39.659Z,15.23
2018-12-06T06:59:07.949Z,15.26
2018-12-06T07:01:36.702Z,15.04
2018-12-06T07:04:05.351Z,15.27
2018-12-06T07:06:33.761Z,15.20
2018-12-06T07:09:02.175Z,15.38
2018-12-06T07:11:30.467Z,15.51
2018-12-06T07:13:58.816Z,15.56
2018-12-06T07:16:27.233Z,15.75
2018-12-06T07:18:55.618Z,15.70
2018-12-06T07:21:24.357Z,15.69
2018-12-06T07:23:52.852Z,15.70
2018-12-06T07:26:21.845Z,15.82
2018-12-06T07:28:50.246Z,15.89
2018-12-06T07:31:18.642Z,15.99
2018-12-06T07:33:47.760Z,15.82
2018-12-06T07:36:17.519Z,16.08
2018-12-06T07:38:45.865Z,15.99
2018-12-06T07:41:14.348Z,16.08
2018-12-06T07:43:42.607Z,16.22
2018-12-06T07:46:11.766Z,16.10
2018-12-06T07:48:40.046Z,16.02
2018-12-06T07:51:08.431Z,16.10
2018-12-06T07:53:36.754Z,16.24
2018-12-06T07:56:05.165Z,16.38
2018-12-06T07:58:35.090Z,16.29
2018-12-06T08:01:06.975Z,16.43
2018-12-06T08:03:36.789Z,16.46
2018-12-06T08:06:05.148Z,16.47
2018-12-06T08:08:34.406Z,16.49
2018-12-06T08:11:03.474Z,16.44
2018-12-06T08:13:32.588Z,16.43
2018-12-06T08:16:02.263Z,16.22
2018-12-06T08:18:30.655Z,16.18
2018-12-06T08:20:59.574Z,16.15
2018-12-06T08:23:28.282Z,16.17
2018-12-06T08:25:58.053Z,15.69
2018-12-06T08:28:26.366Z,16.07
2018-12-06T08:30:54.652Z,15.96
2018-12-06T08:33:22.930Z,16.19
2018-12-06T08:35:51.374Z,16.64
2018-12-06T08:38:21.619Z,16.85
2018-12-06T08:40:50.086Z,16.87
2018-12-06T08:43:18.892Z,17.03
2018-12-06T08:45:51.629Z,16.88
2018-12-06T08:48:27.170Z,17.02
2018-12-06T08:50:55.590Z,17.17
2018-12-06T08:53:23.958Z,16.95
2018-12-06T08:55:53.672Z,17.14
2018-12-06T08:58:22.323Z,17.18
2018-12-06T09:00:54.079Z,16.97
2018-12-06T09:03:22.926Z,17.20
2018-12-06T09:05:51.246Z,17.07
2018-12-06T09:08:19.642Z,17.37
2018-12-06T09:10:51.497Z,17.39
2018-12-06T09:13:18.365Z,17.41
2018-12-06T09:15:46.664Z,17.62
2018-12-06T09:18:15.103Z,17.66
2018-12-06T09:20:43.545Z,17.57
2018-12-06T09:23:12.819Z,17.64
2018-12-06T09:25:41.464Z,17.57
2018-12-06T09:28:10.755Z,17.54
2018-12-06T09:30:42.751Z,17.35
2018-12-06T09:33:11.201Z,17.38
2018-12-06T09:35:41.173Z,17.58
2018-12-06T09:38:09.416Z,17.51
2018-12-06T09:40:38.100Z,17.41
2018-12-06T09:43:06.564Z,17.75
2018-12-06T09:45:35.062Z,17.84
2018-12-06T09:48:03.367Z,17.99
2018-12-06T09:50:33.206Z,17.98
2018-12-06T09:53:01.509Z,18.03
2018-12-06T09:55:29.788Z,17.93
2018-12-06T09:57:58.118Z,18.00
2018-12-06T10:00:27.434Z,18.02
2018-12-06T10:02:56.044Z,18.14
2018-12-06T10:05:24.375Z,18.15
2018-12-06T10:07:52.750Z,18.09
2018-12-06T10:10:23.066Z,18.49
2018-12-06T10:12:51.416Z,18.52
2018-12-06T10:15:20.948Z,18.49
2018-12-06T10:17:51.223Z,18.46
2018-12-06T10:20:19.649Z,18.62
2018-12-06T10:22:48.152Z,18.56
2018-12-06T10:25:17.992Z,18.48
2018-12-06T10:27:46.316Z,18.56
2018-12-06T10:30:14.671Z,18.59
2018-12-06T10:32:43.031Z,18.69
2018-12-06T10:35:12.251Z,18.81
2018-12-06T10:37:40.640Z,18.71
2018-12-06T10:40:09.340Z,18.97
2018-12-06T10:42:37.649Z,19.12
2018-12-06T10:45:07.204Z,18.96
2018-12-06T10:47:35.800Z,18.33
2018-12-06T10:50:05.106Z,18.40
2018-12-06T10:52:35.121Z,18.19
2018-12-06T10:55:08.599Z,18.40
2018-12-06T10:57:41.222Z,17.93
2018-12-06T11:00:14.859Z,17.17
2018-12-06T11:02:49.484Z,16.73
2018-12-06T11:05:18.256Z,16.66
2018-12-06T11:07:46.935Z,16.99
2018-12-06T11:10:15.906Z,16.21
2018-12-06T11:12:44.238Z,16.36
2018-12-06T11:15:12.765Z,16.60
2018-12-06T11:17:41.198Z,16.52
2018-12-06T11:20:09.592Z,17.22
2018-12-06T11:22:42.467Z,17.00
2018-12-06T11:25:10.886Z,17.32
2018-12-06T11:27:39.283Z,17.61
2018-12-06T11:30:08.010Z,17.76
2018-12-06T11:32:36.399Z,17.44
2018-12-06T11:35:04.978Z,17.59
2018-12-06T11:37:35.246Z,17.37
2018-12-06T11:40:03.837Z,17.59
2018-12-06T11:42:32.134Z,17.82
2018-12-06T11:45:00.692Z,17.30
2018-12-06T11:47:31.111Z,18.08
2018-12-06T11:49:59.420Z,17.88
2018-12-06T11:52:27.821Z,17.15
2018-12-06T11:54:56.348Z,16.91
2018-12-06T11:57:27.896Z,17.54
2018-12-06T11:59:56.206Z,17.37
2018-12-06T12:02:24.612Z,17.39
2018-12-06T12:04:53.406Z,17.80
2018-12-06T12:07:22.460Z,17.60
2018-12-06T12:09:51.058Z,17.65
2018-12-06T12:12:19.336Z,17.70
2018-12-06T12:14:47.779Z,17.63
2018-12-06T12:17:16.274Z,18.65
2018-12-06T12:19:45.145Z,18.47
2018-12-06T12:22:14.438Z,17.79
2018-12-06T12:24:43.337Z,18.38
2018-12-06T12:27:12.252Z,17.96
2018-12-06T12:29:41.210Z,18.43
2018-12-06T12:32:10.631Z,18.61
2018-12-06T12:34:39.056Z,18.28
2018-12-06T12:37:07.443Z,17.65
2018-12-06T12:39:36.042Z,18.80
2018-12-06T12:42:05.507Z,19.03
2018-12-06T12:44:33.810Z,19.27
2018-12-06T12:47:04.739Z,20.04
2018-12-06T12:49:33.036Z,19.66
2018-12-06T12:52:01.331Z,19.74
2018-12-06T12:54:29.649Z,20.13
2018-12-06T12:56:58.868Z,19.88
2018-12-06T12:59:27.274Z,19.84
2018-12-06T13:01:57.831Z,19.78
2018-12-06T13:04:26.828Z,19.83
2018-12-06T13:06:55.183Z,19.75
2018-12-06T13:09:23.542Z,19.66
2018-12-06T13:11:51.863Z,20.45
2018-12-06T13:14:20.223Z,21.34
2018-12-06T13:16:48.521Z,21.47
2018-12-06T13:19:16.999Z,22.62
2018-12-06T13:21:45.383Z,22.95
2018-12-06T13:24:13.718Z,23.43
2018-12-06T13:26:42.087Z,23.27
2018-12-06T13:29:10.653Z,23.34
2018-12-06T13:31:38.978Z,22.80
2018-12-06T13:34:11.153Z,21.90
2018-12-06T13:36:44.734Z,19.78
2018-12-06T13:39:13.162Z,18.77
2018-12-06T13:41:42.071Z,18.56
2018-12-06T13:44:10.419Z,19.29
2018-12-06T13:46:38.902Z,20.65
2018-12-06T13:49:07.750Z,19.52
2018-12-06T13:51:36.014Z,19.56
2018-12-06T13:54:05.241Z,20.51
2018-12-06T13:56:34.123Z,20.41
2018-12-06T13:59:04.230Z,19.32
2018-12-06T14:01:32.571Z,20.43
2018-12-06T14:04:01.117Z,19.93
2018-12-06T14:06:29.727Z,19.65
2018-12-06T14:08:58.521Z,18.31
2018-12-06T14:11:26.865Z,19.53
2018-12-06T14:13:55.611Z,19.55
2018-12-06T14:16:24.084Z,19.06
2018-12-06T14:18:52.460Z,19.43
2018-12-06T14:21:20.794Z,19.90
2018-12-06T14:23:49.178Z,20.06
2018-12-06T14:26:17.661Z,20.56
2018-12-06T14:28:46.457Z,19.96
2018-12-06T14:31:14.762Z,19.23
2018-12-06T14:33:44.035Z,19.33
2018-12-06T14:36:14.782Z,19.90
2018-12-06T14:38:43.142Z,18.98
2018-12-06T14:41:11.490Z,18.94
2018-12-06T14:43:39.823Z,18.24
2018-12-06T14:46:08.824Z,18.14
2018-12-06T14:48:37.196Z,18.62
2018-12-06T14:51:07.445Z,19.03
2018-12-06T14:53:35.751Z,18.85
2018-12-06T14:56:07.773Z,18.47
2018-12-06T14:58:36.213Z,18.87
2018-12-06T15:01:04.554Z,19.02
2018-12-06T15:03:32.933Z,18.76
2018-12-06T15:06:01.467Z,18.09
2018-12-06T15:08:29.854Z,17.94
2018-12-06T15:10:58.307Z,17.60
2018-12-06T15:13:26.787Z,18.13
2018-12-06T15:15:55.088Z,17.99
2018-12-06T15:18:23.459Z,17.39
2018-12-06T15:20:51.910Z,17.79
2018-12-06T15:23:20.436Z,18.10
2018-12-06T15:25:48.876Z,17.55
2018-12-06T15:28:17.496Z,17.80
2018-12-06T15:30:46.138Z,17.89
2018-12-06T15:33:14.942Z,17.63
2018-12-06T15:35:43.725Z,17.93
2018-12-06T15:38:12.076Z,17.30
2018-12-06T15:40:40.414Z,17.34
2018-12-06T15:43:08.998Z,17.46
2018-12-06T15:45:37.780Z,16.98
2018-12-06T15:48:07.011Z,16.49
2018-12-06T15:50:36.371Z,17.21
2018-12-06T15:53:05.545Z,16.57
2018-12-06T15:55:33.866Z,17.16
2018-12-06T15:58:02.203Z,16.84
2018-12-06T16:00:30.616Z,16.80
2018-12-06T16:02:59.037Z,17.08
2018-12-06T16:05:27.394Z,17.06
2018-12-06T16:07:55.706Z,17.29
2018-12-06T16:10:24.095Z,17.48
2018-12-06T16:12:52.506Z,17.78
2018-12-06T16:15:20.898Z,17.72
2018-12-06T16:17:49.446Z,17.49
2018-12-06T16:20:18.631Z,17.38
2018-12-06T16:22:46.942Z,17.77
2018-12-06T16:25:15.267Z,17.47
2018-12-06T16:27:45.133Z,17.61
2018-12-06T16:30:15.487Z,17.49
2018-12-06T16:32:44.544Z,17.58
2018-12-06T16:35:17.657Z,17.84
2018-12-06T16:37:46.065Z,17.83
2018-12-06T16:40:14.623Z,18.29
2018-12-06T16:42:43.420Z,18.53
2018-12-06T16:45:11.738Z,18.53
2018-12-06T16:47:47.498Z,18.58
2018-12-06T16:50:15.883Z,18.41
2018-12-06T16:52:44.240Z,18.31
2018-12-06T16:55:13.455Z,18.13
2018-12-06T16:57:41.903Z,18.07
2018-12-06T17:00:14.593Z,18.01
2018-12-06T17:02:43.158Z,17.82
2018-12-06T17:05:11.497Z,17.78
2018-12-06T17:07:39.934Z,17.89
2018-12-06T17:10:12.946Z,17.82
2018-12-06T17:12:41.248Z,17.82
2018-12-06T17:15:09.661Z,17.65
2018-12-06T17:17:38.083Z,17.40
2018-12-06T17:20:07.557Z,16.90
2018-12-06T17:22:35.911Z,16.94
2018-12-06T17:25:04.850Z,16.87
2018-12-06T17:27:33.291Z,17.18
2018-12-06T17:30:01.994Z,16.82
2018-12-06T17:32:30.906Z,17.30
2018-12-06T17:34:59.546Z,17.37
2018-12-06T17:37:28.971Z,17.50
2018-12-06T17:39:57.319Z,17.18
2018-12-06T17:42:25.715Z,17.01
2018-12-06T17:44:54.092Z,17.38
2018-12-06T17:47:22.790Z,17.40
2018-12-06T17:49:51.958Z,17.06
2018-12-06T17:52:20.599Z,17.29
2018-12-06T17:54:48.939Z,17.59
2018-12-06T17:57:18.226Z,17.44
2018-12-06T17:59:46.594Z,17.82
2018-12-06T18:02:15.297Z,17.61
2018-12-06T18:04:43.639Z,17.70
2018-12-06T18:07:12.035Z,17.35
2018-12-06T18:09:40.663Z,17.42
2018-12-06T18:12:08.978Z,17.66
2018-12-06T18:14:40.044Z,16.84
2018-12-06T18:17:08.735Z,17.05
2018-12-06T18:19:37.094Z,17.24
2018-12-06T18:22:05.473Z,17.06
2018-12-06T18:24:33.849Z,16.81
2018-12-06T18:27:02.246Z,17.29
2018-12-06T18:29:30.810Z,16.91
2018-12-06T18:31:59.444Z,16.29
2018-12-06T18:34:28.048Z,16.66
2018-12-06T18:37:00.331Z,16.59
2018-12-06T18:39:29.492Z,16.56
2018-12-06T18:42:01.533Z,16.59
2018-12-06T18:44:29.959Z,16.66
2018-12-06T18:46:59.122Z,16.88
2018-12-06T18:49:27.398Z,17.06
2018-12-06T18:52:00.201Z,16.74
2018-12-06T18:54:28.591Z,16.97
2018-12-06T18:56:57.391Z,17.58
2018-12-06T18:59:25.716Z,16.83
2018-12-06T19:01:54.143Z,16.91
2018-12-06T19:04:22.759Z,16.65
2018-12-06T19:06:51.188Z,17.31
2018-12-06T19:09:19.508Z,17.22
2018-12-06T19:11:48.207Z,17.74
2018-12-06T19:14:21.732Z,17.74
2018-12-06T19:16:47.128Z,18.16
2018-12-06T19:19:15.449Z,17.63
2018-12-06T19:21:48.149Z,17.61
2018-12-06T19:24:17.104Z,17.60
2018-12-06T19:26:45.637Z,17.44
2018-12-06T19:29:14.100Z,18.01
2018-12-06T19:31:42.812Z,18.23
2018-12-06T19:34:11.596Z,18.09
2018-12-06T19:36:40.270Z,18.24
2018-12-06T19:39:10.033Z,17.61
2018-12-06T19:41:56.275Z,17.95
2018-12-06T19:44:25.362Z,17.60
2018-12-06T19:46:53.822Z,17.81
2018-12-06T19:49:22.501Z,17.58
2018-12-06T19:51:52.427Z,16.84
2018-12-06T19:54:20.731Z,16.84
2018-12-06T19:56:50.000Z,16.87
2018-12-06T19:59:18.291Z,16.94
2018-12-06T20:01:47.503Z,16.79
2018-12-06T20:04:15.783Z,16.71
2018-12-06T20:06:46.417Z,16.37
2018-12-06T20:09:15.297Z,17.09
2018-12-06T20:11:43.618Z,16.78
2018-12-06T20:14:12.203Z,17.41
2018-12-06T20:16:40.544Z,17.57
2018-12-06T20:19:08.867Z,16.64
2018-12-06T20:21:37.598Z,16.80
2018-12-06T20:24:06.008Z,16.74
2018-12-06T20:26:34.352Z,16.49
2018-12-06T20:29:02.631Z,16.92
2018-12-06T20:31:31.093Z,16.55
2018-12-06T20:34:00.042Z,16.71
2018-12-06T20:36:28.372Z,16.68
2018-12-06T20:38:56.636Z,17.15
2018-12-06T20:41:24.982Z,16.81
2018-12-06T20:43:53.267Z,16.62
2018-12-06T20:46:21.624Z,16.86
2018-12-06T20:48:49.941Z,16.72
2018-12-06T20:51:18.380Z,16.97
2018-12-06T20:53:46.667Z,16.96
2018-12-06T20:56:15.092Z,17.16
2018-12-06T20:58:43.486Z,17.02
2018-12-06T21:01:11.959Z,16.58
2018-12-06T21:03:40.357Z,16.32
2018-12-06T21:06:08.865Z,16.99
2018-12-06T21:08:37.163Z,16.68
2018-12-06T21:11:05.474Z,16.55
2018-12-06T21:13:34.072Z,16.24
2018-12-06T21:16:02.550Z,16.31
2018-12-06T21:18:30.921Z,16.74
2018-12-06T21:21:00.451Z,16.82
2018-12-06T21:23:30.144Z,16.96
2018-12-06T21:25:58.682Z,16.31
2018-12-06T21:28:27.351Z,16.78
2018-12-06T21:30:56.421Z,16.75
2018-12-06T21:33:27.181Z,16.95
2018-12-06T21:35:55.792Z,17.30
2018-12-06T21:38:24.395Z,17.02
2018-12-06T21:40:56.314Z,17.35
2018-12-06T21:43:24.913Z,17.48
2018-12-06T21:45:54.305Z,17.30
2018-12-06T21:48:24.435Z,17.41
2018-12-06T21:51:02.084Z,17.95
2018-12-06T21:53:31.277Z,17.63
2018-12-06T21:56:06.897Z,17.43
2018-12-06T21:58:38.438Z,17.90
2018-12-06T22:01:09.658Z,17.44
2018-12-06T22:03:39.452Z,17.41
2018-12-06T22:06:07.830Z,17.84
2018-12-06T22:08:36.098Z,17.65
2018-12-06T22:11:09.293Z,17.27
2018-12-06T22:13:39.715Z,17.29
2018-12-06T22:16:08.108Z,16.62
2018-12-06T22:18:36.806Z,16.95
2018-12-06T22:21:05.196Z,17.43
2018-12-06T22:23:33.506Z,17.50
2018-12-06T22:26:01.927Z,17.17
2018-12-06T22:28:34.030Z,17.04
2018-12-06T22:31:01.534Z,16.38
2018-12-06T22:33:31.264Z,16.64
2018-12-06T22:36:00.174Z,17.39
2018-12-06T22:38:34.028Z,17.01
2018-12-06T22:41:00.881Z,16.57
2018-12-06T22:43:29.362Z,16.61
2018-12-06T22:46:00.472Z,16.42
2018-12-06T22:48:29.086Z,16.34
2018-12-06T22:50:57.358Z,17.26
2018-12-06T22:53:25.690Z,17.02
2018-12-06T22:55:54.057Z,16.70
2018-12-06T22:58:22.481Z,16.63
2018-12-06T23:00:56.486Z,16.36
2018-12-06T23:03:24.888Z,16.23
2018-12-06T23:05:54.134Z,16.53
2018-12-06T23:08:22.795Z,17.00
2018-12-06T23:10:51.249Z,16.76
2018-12-06T23:13:19.620Z,16.95
2018-12-06T23:15:47.911Z,17.17
2018-12-06T23:18:16.307Z,17.23
2018-12-06T23:20:44.709Z,16.67
2018-12-06T23:23:13.203Z,16.49
2018-12-06T23:25:41.488Z,16.37
2018-12-06T23:28:09.996Z,16.39
2018-12-06T23:30:38.561Z,16.26
2018-12-06T23:33:07.046Z,16.49
2018-12-06T23:35:35.466Z,16.58
2018-12-06T23:38:03.753Z,16.71
2018-12-06T23:40:32.283Z,16.63
2018-12-06T23:43:00.593Z,16.26
2018-12-06T23:45:29.090Z,16.46
2018-12-06T23:47:57.379Z,16.80
2018-12-06T23:50:25.875Z,17.01
2018-12-06T23:52:54.164Z,16.96
2018-12-06T23:55:22.508Z,17.20
2018-12-06T23:57:50.955Z,17.43
